createdAt,value
2019-01-29T00:00:31.474Z,463
2019-01-29T00:01:38.678Z,462
2019-01-29T00:02:45.880Z,462
2019-01-29T00:03:53.078Z,462
2019-01-29T00:05:00.278Z,461
2019-01-29T00:06:09.387Z,461
2019-01-29T00:07:16.597Z,461
2019-01-29T00:08:23.797Z,461
2019-01-29T00:09:31.005Z,461
2019-01-29T00:10:37.937Z,462
2019-01-29T00:11:45.143Z,462
2019-01-29T00:12:52.075Z,462
2019-01-29T00:13:58.729Z,462
2019-01-29T00:15:05.947Z,459
2019-01-29T00:16:13.141Z,460
2019-01-29T00:17:20.335Z,460
2019-01-29T00:18:27.552Z,460
2019-01-29T00:19:34.477Z,461
2019-01-29T00:20:41.681Z,460
2019-01-29T00:21:48.894Z,459
2019-01-29T00:22:56.100Z,460
2019-01-29T00:24:03.054Z,460
2019-01-29T00:25:09.976Z,460
2019-01-29T00:26:16.928Z,459
2019-01-29T00:27:24.136Z,461
2019-01-29T00:28:31.358Z,459
2019-01-29T00:29:38.315Z,460
2019-01-29T00:30:45.539Z,460
2019-01-29T00:31:52.739Z,459
2019-01-29T00:32:59.937Z,460
2019-01-29T00:34:07.140Z,461
2019-01-29T00:35:14.345Z,460
2019-01-29T00:36:21.328Z,459
2019-01-29T00:37:28.537Z,461
2019-01-29T00:38:35.466Z,459
2019-01-29T00:39:42.400Z,460
2019-01-29T00:40:49.599Z,459
2019-01-29T00:41:56.542Z,459
2019-01-29T00:43:03.746Z,460
2019-01-29T00:44:10.999Z,461
2019-01-29T00:45:18.204Z,459
2019-01-29T00:46:25.420Z,460
2019-01-29T00:47:32.645Z,459
2019-01-29T00:48:39.846Z,460
2019-01-29T00:49:46.764Z,459
2019-01-29T00:50:53.686Z,460
2019-01-29T00:52:00.607Z,460
2019-01-29T00:53:07.251Z,460
2019-01-29T00:54:14.446Z,460
2019-01-29T00:55:21.709Z,461
2019-01-29T00:56:28.935Z,461
2019-01-29T00:57:35.873Z,460
2019-01-29T00:58:43.064Z,460
2019-01-29T00:59:50.300Z,460
2019-01-29T01:00:58.936Z,459
2019-01-29T01:02:06.191Z,459
2019-01-29T01:03:13.126Z,461
2019-01-29T01:04:20.054Z,460
2019-01-29T01:05:27.250Z,460
2019-01-29T01:06:34.468Z,460
2019-01-29T01:07:41.668Z,460
2019-01-29T01:08:48.349Z,460
2019-01-29T01:09:58.403Z,460
2019-01-29T01:11:05.613Z,461
2019-01-29T01:12:12.809Z,461
2019-01-29T01:13:20.023Z,460
2019-01-29T01:14:27.229Z,460
2019-01-29T01:15:34.210Z,460
2019-01-29T01:16:41.417Z,460
2019-01-29T01:17:48.618Z,460
2019-01-29T01:18:55.813Z,460
2019-01-29T01:20:03.023Z,461
2019-01-29T01:21:09.942Z,461
2019-01-29T01:22:17.144Z,459
2019-01-29T01:23:24.075Z,461
2019-01-29T01:24:31.291Z,460
2019-01-29T01:25:38.212Z,460
2019-01-29T01:26:45.439Z,459
2019-01-29T01:27:52.365Z,460
2019-01-29T01:28:59.563Z,461
2019-01-29T01:30:06.489Z,461
2019-01-29T01:31:13.697Z,459
2019-01-29T01:32:20.894Z,461
2019-01-29T01:33:28.098Z,460
2019-01-29T01:34:35.030Z,460
2019-01-29T01:35:41.969Z,460
2019-01-29T01:36:49.171Z,459
2019-01-29T01:37:56.402Z,459
2019-01-29T01:39:03.604Z,458
2019-01-29T01:40:10.265Z,458
2019-01-29T01:41:17.465Z,459
2019-01-29T01:42:24.398Z,458
2019-01-29T01:43:31.593Z,459
2019-01-29T01:44:38.797Z,459
2019-01-29T01:45:45.995Z,458
2019-01-29T01:46:52.938Z,460
2019-01-29T01:48:00.144Z,460
2019-01-29T01:49:07.362Z,459
2019-01-29T01:50:14.604Z,459
2019-01-29T01:51:21.522Z,458
2019-01-29T01:52:28.735Z,459
2019-01-29T01:53:35.379Z,459
2019-01-29T01:54:42.050Z,458
2019-01-29T01:55:49.255Z,458
2019-01-29T01:56:56.447Z,459
2019-01-29T01:58:03.640Z,459
2019-01-29T01:59:10.564Z,457
2019-01-29T02:00:17.494Z,459
2019-01-29T02:01:24.690Z,457
2019-01-29T02:02:31.909Z,459
2019-01-29T02:03:39.116Z,458
2019-01-29T02:04:46.046Z,458
2019-01-29T02:05:53.255Z,458
2019-01-29T02:07:00.446Z,457
2019-01-29T02:08:07.649Z,457
2019-01-29T02:09:14.842Z,457
2019-01-29T02:10:22.044Z,457
2019-01-29T02:11:29.241Z,456
2019-01-29T02:12:35.905Z,456
2019-01-29T02:13:43.043Z,457
2019-01-29T02:14:50.239Z,456
2019-01-29T02:15:57.678Z,457
2019-01-29T02:17:04.877Z,456
2019-01-29T02:18:12.074Z,456
2019-01-29T02:19:19.272Z,455
2019-01-29T02:20:26.414Z,455
2019-01-29T02:21:33.614Z,455
2019-01-29T02:22:40.819Z,455
2019-01-29T02:23:48.026Z,456
2019-01-29T02:24:55.245Z,456
2019-01-29T02:26:02.452Z,456
2019-01-29T02:27:09.676Z,455
2019-01-29T02:28:16.882Z,456
2019-01-29T02:29:23.832Z,455
2019-01-29T02:30:30.762Z,456
2019-01-29T02:31:38.005Z,456
2019-01-29T02:32:44.930Z,455
2019-01-29T02:33:52.134Z,455
2019-01-29T02:34:59.340Z,454
2019-01-29T02:36:06.543Z,455
2019-01-29T02:37:13.747Z,454
2019-01-29T02:38:20.935Z,455
2019-01-29T02:39:28.130Z,455
2019-01-29T02:40:35.343Z,455
2019-01-29T02:41:42.267Z,456
2019-01-29T02:42:49.193Z,455
2019-01-29T02:43:56.401Z,456
2019-01-29T02:45:03.072Z,455
2019-01-29T02:46:09.991Z,454
2019-01-29T02:47:17.187Z,456
2019-01-29T02:48:24.382Z,456
2019-01-29T02:49:31.576Z,454
2019-01-29T02:50:38.780Z,454
2019-01-29T02:51:45.980Z,454
2019-01-29T02:52:53.189Z,455
2019-01-29T02:54:00.391Z,455
2019-01-29T02:55:07.363Z,454
2019-01-29T02:56:14.276Z,453
2019-01-29T02:57:21.200Z,455
2019-01-29T02:58:28.400Z,454
2019-01-29T02:59:35.334Z,454
2019-01-29T03:00:42.536Z,454
2019-01-29T03:01:49.731Z,454
2019-01-29T03:02:56.951Z,454
2019-01-29T03:04:03.877Z,454
2019-01-29T03:05:11.095Z,454
2019-01-29T03:06:18.297Z,455
2019-01-29T03:07:25.498Z,455
2019-01-29T03:08:32.423Z,454
2019-01-29T03:09:39.629Z,455
2019-01-29T03:10:46.283Z,454
2019-01-29T03:11:53.486Z,454
2019-01-29T03:13:00.689Z,453
2019-01-29T03:14:08.289Z,454
2019-01-29T03:15:15.493Z,455
2019-01-29T03:16:22.697Z,454
2019-01-29T03:17:29.893Z,454
2019-01-29T03:18:37.093Z,454
2019-01-29T03:19:44.329Z,454
2019-01-29T03:20:50.988Z,454
2019-01-29T03:21:58.188Z,454
2019-01-29T03:23:05.416Z,454
2019-01-29T03:24:12.621Z,453
2019-01-29T03:25:19.830Z,453
2019-01-29T03:26:26.754Z,454
2019-01-29T03:27:33.960Z,455
2019-01-29T03:28:41.157Z,454
2019-01-29T03:29:48.359Z,453
2019-01-29T03:30:55.014Z,454
2019-01-29T03:32:02.232Z,454
2019-01-29T03:33:09.445Z,454
2019-01-29T03:34:16.656Z,454
2019-01-29T03:35:23.853Z,454
2019-01-29T03:36:31.080Z,454
2019-01-29T03:37:37.728Z,454
2019-01-29T03:38:44.946Z,454
2019-01-29T03:39:52.146Z,455
2019-01-29T03:40:59.186Z,455
2019-01-29T03:42:06.387Z,454
2019-01-29T03:43:13.591Z,455
2019-01-29T03:44:20.787Z,455
2019-01-29T03:45:27.991Z,455
2019-01-29T03:46:34.919Z,457
2019-01-29T03:47:41.582Z,456
2019-01-29T03:48:48.785Z,457
2019-01-29T03:49:56.006Z,456
2019-01-29T03:51:03.207Z,457
2019-01-29T03:52:10.411Z,457
2019-01-29T03:53:17.343Z,455
2019-01-29T03:54:24.543Z,456
2019-01-29T03:55:31.477Z,456
2019-01-29T03:56:38.707Z,457
2019-01-29T03:57:45.901Z,458
2019-01-29T03:58:53.122Z,457
2019-01-29T04:00:00.049Z,457
2019-01-29T04:01:07.030Z,457
2019-01-29T04:02:13.955Z,456
2019-01-29T04:03:20.884Z,457
2019-01-29T04:04:28.086Z,457
2019-01-29T04:05:35.001Z,457
2019-01-29T04:06:41.925Z,457
2019-01-29T04:07:48.851Z,456
2019-01-29T04:08:56.043Z,457
2019-01-29T04:10:02.707Z,455
2019-01-29T04:11:09.902Z,456
2019-01-29T04:12:16.840Z,457
2019-01-29T04:13:24.042Z,455
2019-01-29T04:14:31.246Z,456
2019-01-29T04:15:37.905Z,456
2019-01-29T04:16:45.110Z,456
2019-01-29T04:17:52.314Z,456
2019-01-29T04:18:59.522Z,455
2019-01-29T04:20:06.723Z,454
2019-01-29T04:21:13.924Z,454
2019-01-29T04:22:21.132Z,454
2019-01-29T04:23:27.534Z,455
2019-01-29T04:24:34.480Z,454
2019-01-29T04:25:41.679Z,453
2019-01-29T04:26:48.302Z,453
2019-01-29T04:27:55.494Z,455
2019-01-29T04:29:02.917Z,453
2019-01-29T04:30:10.315Z,453
2019-01-29T04:31:17.522Z,454
2019-01-29T04:32:24.730Z,452
2019-01-29T04:33:31.656Z,453
2019-01-29T04:34:38.868Z,453
2019-01-29T04:35:46.072Z,453
2019-01-29T04:36:52.748Z,454
2019-01-29T04:37:59.957Z,453
2019-01-29T04:39:07.193Z,453
2019-01-29T04:40:14.126Z,453
2019-01-29T04:41:21.341Z,453
2019-01-29T04:42:28.545Z,453
2019-01-29T04:43:35.750Z,453
2019-01-29T04:44:42.948Z,452
2019-01-29T04:45:50.146Z,453
2019-01-29T04:46:57.107Z,452
2019-01-29T04:48:04.302Z,453
2019-01-29T04:49:11.503Z,453
2019-01-29T04:50:18.174Z,453
2019-01-29T04:51:25.377Z,452
2019-01-29T04:52:32.312Z,453
2019-01-29T04:53:39.514Z,453
2019-01-29T04:54:46.441Z,452
2019-01-29T04:55:53.362Z,452
2019-01-29T04:57:00.564Z,452
2019-01-29T04:58:07.759Z,454
2019-01-29T04:59:14.700Z,453
2019-01-29T05:00:21.626Z,452
2019-01-29T05:01:28.277Z,453
2019-01-29T05:02:35.480Z,453
2019-01-29T05:03:42.677Z,453
2019-01-29T05:04:49.608Z,452
2019-01-29T05:05:56.529Z,453
2019-01-29T05:07:03.464Z,452
2019-01-29T05:08:10.682Z,452
2019-01-29T05:09:17.319Z,452
2019-01-29T05:10:24.522Z,452
2019-01-29T05:11:31.732Z,453
2019-01-29T05:12:39.149Z,453
2019-01-29T05:13:46.338Z,454
2019-01-29T05:14:53.266Z,453
2019-01-29T05:16:00.189Z,454
2019-01-29T05:17:07.416Z,454
2019-01-29T05:18:14.626Z,454
2019-01-29T05:19:21.870Z,453
2019-01-29T05:20:29.074Z,454
2019-01-29T05:21:36.286Z,453
2019-01-29T05:22:43.206Z,452
2019-01-29T05:23:50.444Z,454
2019-01-29T05:24:57.659Z,453
2019-01-29T05:26:04.862Z,453
2019-01-29T05:27:11.525Z,453
2019-01-29T05:28:18.748Z,453
2019-01-29T05:29:25.656Z,453
2019-01-29T05:30:32.878Z,453
2019-01-29T05:31:40.079Z,453
2019-01-29T05:32:47.356Z,453
2019-01-29T05:33:53.751Z,453
2019-01-29T05:35:00.972Z,452
2019-01-29T05:36:08.175Z,452
2019-01-29T05:37:15.103Z,453
2019-01-29T05:38:22.307Z,453
2019-01-29T05:39:29.537Z,453
2019-01-29T05:40:36.741Z,454
2019-01-29T05:41:43.942Z,453
2019-01-29T05:42:51.156Z,453
2019-01-29T05:43:58.081Z,453
2019-01-29T05:45:05.288Z,454
2019-01-29T05:46:12.494Z,455
2019-01-29T05:47:19.455Z,455
2019-01-29T05:48:26.657Z,455
2019-01-29T05:49:33.857Z,456
2019-01-29T05:50:41.052Z,456
2019-01-29T05:51:47.715Z,455
2019-01-29T05:52:54.645Z,455
2019-01-29T05:54:01.837Z,454
2019-01-29T05:55:09.063Z,455
2019-01-29T05:56:16.244Z,453
2019-01-29T05:57:23.441Z,453
2019-01-29T05:58:30.378Z,454
2019-01-29T05:59:37.572Z,454
2019-01-29T06:00:44.229Z,453
2019-01-29T06:01:51.428Z,454
2019-01-29T06:02:58.628Z,453
2019-01-29T06:04:05.832Z,454
2019-01-29T06:05:13.041Z,453
2019-01-29T06:06:20.256Z,457
2019-01-29T06:07:27.461Z,457
2019-01-29T06:08:34.663Z,457
2019-01-29T06:09:41.857Z,457
2019-01-29T06:10:49.054Z,459
2019-01-29T06:11:55.989Z,458
2019-01-29T06:13:03.195Z,457
2019-01-29T06:14:09.850Z,458
2019-01-29T06:15:17.052Z,456
2019-01-29T06:16:24.309Z,456
2019-01-29T06:17:31.229Z,456
2019-01-29T06:18:38.432Z,454
2019-01-29T06:19:45.382Z,454
2019-01-29T06:20:52.596Z,454
2019-01-29T06:21:59.821Z,454
2019-01-29T06:23:07.021Z,455
2019-01-29T06:24:14.232Z,455
2019-01-29T06:25:21.446Z,457
2019-01-29T06:26:28.706Z,457
2019-01-29T06:27:35.928Z,458
2019-01-29T06:28:42.578Z,458
2019-01-29T06:29:49.776Z,458
2019-01-29T06:30:56.975Z,458
2019-01-29T06:32:03.938Z,458
2019-01-29T06:33:11.137Z,458
2019-01-29T06:34:18.345Z,457
2019-01-29T06:35:25.550Z,457
2019-01-29T06:36:32.751Z,459
2019-01-29T06:37:39.944Z,458
2019-01-29T06:38:47.140Z,458
2019-01-29T06:39:54.339Z,458
2019-01-29T06:41:01.533Z,458
2019-01-29T06:42:08.462Z,459
2019-01-29T06:43:15.660Z,459
2019-01-29T06:44:22.876Z,459
2019-01-29T06:45:30.072Z,459
2019-01-29T06:46:37.284Z,459
2019-01-29T06:47:44.488Z,461
2019-01-29T06:48:51.682Z,459
2019-01-29T06:50:00.734Z,458
2019-01-29T06:51:07.426Z,459
2019-01-29T06:52:14.625Z,458
2019-01-29T06:53:21.830Z,458
2019-01-29T06:54:35.108Z,458
2019-01-29T06:55:42.309Z,457
2019-01-29T06:56:49.510Z,456
2019-01-29T06:57:57.226Z,456
2019-01-29T06:59:04.429Z,456
2019-01-29T07:00:11.365Z,455
2019-01-29T07:01:18.564Z,455
2019-01-29T07:02:25.818Z,454
2019-01-29T07:03:33.012Z,454
2019-01-29T07:04:40.209Z,454
2019-01-29T07:05:47.407Z,454
2019-01-29T07:06:54.602Z,454
2019-01-29T07:08:01.532Z,454
2019-01-29T07:09:08.739Z,454
2019-01-29T07:10:15.942Z,455
2019-01-29T07:11:23.148Z,454
2019-01-29T07:12:30.085Z,454
2019-01-29T07:13:37.291Z,454
2019-01-29T07:14:44.211Z,454
2019-01-29T07:15:51.147Z,454
2019-01-29T07:16:58.137Z,453
2019-01-29T07:18:05.346Z,454
2019-01-29T07:19:12.542Z,454
2019-01-29T07:20:19.747Z,454
2019-01-29T07:21:26.946Z,453
2019-01-29T07:22:33.892Z,454
2019-01-29T07:23:40.818Z,453
2019-01-29T07:24:47.481Z,454
2019-01-29T07:25:54.737Z,453
2019-01-29T07:27:01.662Z,453
2019-01-29T07:28:08.590Z,453
2019-01-29T07:29:15.796Z,454
2019-01-29T07:30:22.460Z,455
2019-01-29T07:31:29.664Z,454
2019-01-29T07:32:36.867Z,453
2019-01-29T07:33:44.064Z,454
2019-01-29T07:34:51.264Z,453
2019-01-29T07:35:58.464Z,454
2019-01-29T07:37:05.659Z,452
2019-01-29T07:38:12.859Z,453
2019-01-29T07:39:19.507Z,454
2019-01-29T07:40:26.713Z,453
2019-01-29T07:41:33.915Z,453
2019-01-29T07:42:41.127Z,452
2019-01-29T07:43:48.322Z,452
2019-01-29T07:44:55.528Z,452
2019-01-29T07:46:02.461Z,453
2019-01-29T07:47:09.666Z,452
2019-01-29T07:48:16.589Z,452
2019-01-29T07:49:23.779Z,453
2019-01-29T07:50:30.976Z,452
2019-01-29T07:51:38.176Z,452
2019-01-29T07:52:45.393Z,453
2019-01-29T07:53:52.608Z,453
2019-01-29T07:54:59.819Z,452
2019-01-29T07:56:07.027Z,452
2019-01-29T07:57:14.232Z,452
2019-01-29T07:58:21.437Z,451
2019-01-29T07:59:34.156Z,452
2019-01-29T08:00:43.180Z,452
2019-01-29T08:01:50.377Z,452
2019-01-29T08:02:57.314Z,453
2019-01-29T08:04:04.520Z,451
2019-01-29T08:05:11.449Z,453
2019-01-29T08:06:18.393Z,451
2019-01-29T08:07:25.605Z,453
2019-01-29T08:08:32.806Z,452
2019-01-29T08:09:40.005Z,453
2019-01-29T08:10:47.209Z,452
2019-01-29T08:11:54.408Z,451
2019-01-29T08:13:01.621Z,452
2019-01-29T08:14:08.817Z,452
2019-01-29T08:15:16.019Z,451
2019-01-29T08:16:22.944Z,451
2019-01-29T08:17:30.170Z,452
2019-01-29T08:18:37.375Z,452
2019-01-29T08:19:44.604Z,452
2019-01-29T08:20:51.795Z,452
2019-01-29T08:21:58.725Z,453
2019-01-29T08:23:05.651Z,452
2019-01-29T08:24:12.851Z,452
2019-01-29T08:25:20.065Z,452
2019-01-29T08:26:26.992Z,451
2019-01-29T08:27:34.205Z,452
2019-01-29T08:28:41.346Z,450
2019-01-29T08:29:48.551Z,451
2019-01-29T08:30:55.751Z,452
2019-01-29T08:32:02.949Z,452
2019-01-29T08:33:10.170Z,451
2019-01-29T08:34:17.100Z,451
2019-01-29T08:35:24.056Z,451
2019-01-29T08:36:30.973Z,451
2019-01-29T08:37:38.200Z,452
2019-01-29T08:38:45.141Z,451
2019-01-29T08:39:52.344Z,452
2019-01-29T08:40:59.539Z,450
2019-01-29T08:42:06.747Z,451
2019-01-29T08:43:13.960Z,450
2019-01-29T08:44:20.886Z,451
2019-01-29T08:45:28.084Z,450
2019-01-29T08:46:35.285Z,451
2019-01-29T08:47:42.483Z,450
2019-01-29T08:48:49.685Z,450
2019-01-29T08:49:56.882Z,449
2019-01-29T08:51:04.848Z,449
2019-01-29T08:52:12.702Z,449
2019-01-29T08:53:19.907Z,449
2019-01-29T08:54:27.105Z,449
2019-01-29T08:55:34.041Z,449
2019-01-29T08:56:40.963Z,449
2019-01-29T08:57:48.252Z,448
2019-01-29T08:58:55.453Z,448
2019-01-29T09:00:02.658Z,449
2019-01-29T09:01:09.859Z,448
2019-01-29T09:02:17.055Z,448
2019-01-29T09:03:24.255Z,447
2019-01-29T09:04:31.459Z,447
2019-01-29T09:05:38.665Z,447
2019-01-29T09:06:45.599Z,447
2019-01-29T09:07:52.806Z,445
2019-01-29T09:09:00.005Z,447
2019-01-29T09:10:06.946Z,447
2019-01-29T09:11:13.868Z,446
2019-01-29T09:12:21.067Z,445
2019-01-29T09:13:28.266Z,446
2019-01-29T09:14:35.465Z,445
2019-01-29T09:15:57.326Z,446
2019-01-29T09:17:04.248Z,445
2019-01-29T09:18:11.455Z,444
2019-01-29T09:19:33.304Z,444
2019-01-29T09:20:40.512Z,444
2019-01-29T09:21:47.447Z,444
2019-01-29T09:22:54.365Z,444
2019-01-29T09:24:01.570Z,445
2019-01-29T09:25:08.777Z,443
2019-01-29T09:26:15.453Z,445
2019-01-29T09:27:22.671Z,444
2019-01-29T09:28:29.615Z,445
2019-01-29T09:29:36.812Z,444
2019-01-29T09:30:44.949Z,444
2019-01-29T09:31:52.150Z,444
2019-01-29T09:32:59.086Z,445
2019-01-29T09:34:06.305Z,445
2019-01-29T09:35:13.513Z,445
2019-01-29T09:36:20.714Z,445
2019-01-29T09:37:28.464Z,445
2019-01-29T09:38:35.671Z,443
2019-01-29T09:39:42.615Z,444
2019-01-29T09:40:49.556Z,443
2019-01-29T09:41:56.770Z,442
2019-01-29T09:43:03.984Z,442
2019-01-29T09:44:11.196Z,442
2019-01-29T09:45:18.394Z,441
2019-01-29T09:46:25.346Z,444
2019-01-29T09:47:32.304Z,442
2019-01-29T09:48:39.509Z,441
2019-01-29T09:49:46.706Z,443
2019-01-29T23:00:06.204Z,451
2019-01-29T23:01:13.415Z,444
2019-01-29T23:02:20.618Z,445
2019-01-29T23:03:27.823Z,448
2019-01-29T23:04:35.025Z,449
2019-01-29T23:05:42.214Z,451
2019-01-29T23:06:49.156Z,451
2019-01-29T23:07:56.082Z,451
2019-01-29T23:09:03.290Z,451
2019-01-29T23:10:10.482Z,453
2019-01-29T23:11:17.700Z,452
2019-01-29T23:12:24.905Z,453
2019-01-29T23:13:32.104Z,454
2019-01-29T23:14:39.314Z,453
2019-01-29T23:15:46.522Z,453
2019-01-29T23:16:53.447Z,453
2019-01-29T23:18:00.660Z,453
2019-01-29T23:19:07.575Z,454
2019-01-29T23:20:14.793Z,453
2019-01-29T23:21:21.993Z,455
2019-01-29T23:22:28.915Z,455
2019-01-29T23:23:35.837Z,453
2019-01-29T23:24:43.034Z,454
2019-01-29T23:25:50.229Z,454
2019-01-29T23:26:57.433Z,454
2019-01-29T23:28:04.650Z,453
2019-01-29T23:29:11.598Z,453
2019-01-29T23:30:18.813Z,454
2019-01-29T23:31:26.017Z,454
2019-01-29T23:32:33.213Z,454
2019-01-29T23:33:40.417Z,455
2019-01-29T23:34:47.359Z,455
2019-01-29T23:35:54.034Z,453
2019-01-29T23:37:01.247Z,452
2019-01-29T23:38:08.444Z,453
2019-01-29T23:39:15.638Z,454
2019-01-29T23:40:22.841Z,453
2019-01-29T23:41:30.049Z,453
2019-01-29T23:42:37.259Z,453
2019-01-29T23:43:44.460Z,454
2019-01-29T23:44:51.681Z,453
2019-01-29T23:45:58.612Z,455
2019-01-29T23:47:05.828Z,453
2019-01-29T23:48:13.055Z,455
2019-01-29T23:49:20.276Z,454
2019-01-29T23:50:27.468Z,455
2019-01-29T23:51:34.667Z,455
2019-01-29T23:52:41.872Z,455
2019-01-29T23:53:48.799Z,454
2019-01-29T23:54:56.088Z,453
2019-01-29T23:56:03.280Z,454
2019-01-29T23:57:10.484Z,454
2019-01-29T23:58:17.777Z,455
2019-01-29T23:59:24.977Z,454
